createdAt,value
2019-05-26T00:01:47.752Z,99450.05
2019-05-26T00:04:21.966Z,99443.79
2019-05-26T00:06:55.118Z,99449.27
2019-05-26T00:09:29.255Z,99446.00
2019-05-26T00:12:03.362Z,99441.12
2019-05-26T00:14:37.593Z,99442.66
2019-05-26T00:17:11.096Z,99445.95
2019-05-26T00:19:44.846Z,99443.78
2019-05-26T00:22:18.569Z,99443.69
2019-05-26T00:24:52.847Z,99437.14
2019-05-26T00:27:26.842Z,99442.53
2019-05-26T00:30:01.060Z,99443.95
2019-05-26T00:32:35.169Z,99445.97
2019-05-26T00:35:08.369Z,99448.66
2019-05-26T00:37:50.540Z,99448.44
2019-05-26T00:40:18.535Z,99445.34
2019-05-26T00:42:52.130Z,99444.45
2019-05-26T00:45:26.564Z,99450.13
2019-05-26T00:48:00.981Z,99450.58
2019-05-26T00:50:34.664Z,99454.48
2019-05-26T00:53:08.009Z,99456.44
2019-05-26T00:55:41.667Z,99457.27
2019-05-26T00:58:15.817Z,99455.09
2019-05-26T01:00:49.574Z,99459.80
2019-05-26T01:03:23.458Z,99461.79
2019-05-26T01:05:57.281Z,99463.07
2019-05-26T01:08:31.438Z,99467.10
2019-05-26T01:11:05.013Z,99461.42
2019-05-26T01:13:39.247Z,99463.80
2019-05-26T01:16:13.471Z,99462.72
2019-05-26T01:18:47.047Z,99462.66
2019-05-26T01:21:20.687Z,99461.98
2019-05-26T01:23:53.958Z,99462.72
2019-05-26T01:26:27.789Z,99463.42
2019-05-26T01:29:01.902Z,99457.20
2019-05-26T01:31:35.171Z,99457.23
2019-05-26T01:34:08.752Z,99456.45
2019-05-26T01:36:42.991Z,99453.33
2019-05-26T01:39:16.764Z,99453.20
2019-05-26T01:41:51.021Z,99458.95
2019-05-26T01:44:25.043Z,99455.66
2019-05-26T01:46:58.626Z,99460.61
2019-05-26T01:49:32.722Z,99462.36
2019-05-26T01:52:06.984Z,99469.83
2019-05-26T01:54:41.103Z,99464.61
2019-05-26T01:57:15.591Z,99478.89
2019-05-26T01:59:49.095Z,99476.18
2019-05-26T02:02:22.678Z,99476.20
2019-05-26T02:04:56.939Z,99475.66
2019-05-26T02:07:31.183Z,99478.30
2019-05-26T02:10:05.269Z,99481.72
2019-05-26T02:12:38.951Z,99481.44
2019-05-26T02:15:13.648Z,99481.56
2019-05-26T02:17:46.866Z,99481.20
2019-05-26T02:20:20.770Z,99484.73
2019-05-26T02:22:54.995Z,99493.09
2019-05-26T02:25:30.106Z,99488.77
2019-05-26T02:28:03.838Z,99487.18
2019-05-26T02:30:38.074Z,99490.28
2019-05-26T02:33:11.361Z,99482.27
2019-05-26T02:35:45.069Z,99489.87
2019-05-26T02:38:18.238Z,99491.58
2019-05-26T02:40:51.467Z,99486.37
2019-05-26T02:43:24.745Z,99488.97
2019-05-26T02:45:57.804Z,99486.73
2019-05-26T02:48:31.553Z,99484.27
2019-05-26T02:51:04.900Z,99484.97
2019-05-26T02:53:38.714Z,99481.99
2019-05-26T02:56:11.974Z,99482.70
2019-05-26T02:58:45.747Z,99480.67
2019-05-26T03:01:20.380Z,99486.78
2019-05-26T03:03:53.871Z,99493.95
2019-05-26T03:06:29.881Z,99491.52
2019-05-26T03:09:21.981Z,99494.56
2019-05-26T03:11:45.915Z,99501.62
2019-05-26T03:14:22.929Z,99503.48
2019-05-26T03:17:00.983Z,99502.27
2019-05-26T03:19:35.344Z,99498.41
2019-05-26T03:22:09.867Z,99503.92
2019-05-26T03:24:47.398Z,99504.20
2019-05-26T03:27:20.759Z,99499.52
2019-05-26T03:29:54.184Z,99506.16
2019-05-26T03:32:28.009Z,99507.63
2019-05-26T03:35:01.848Z,99502.58
2019-05-26T03:37:35.703Z,99501.31
2019-05-26T03:40:10.711Z,99494.26
2019-05-26T03:42:44.382Z,99493.92
2019-05-26T03:45:27.250Z,99495.52
2019-05-26T03:48:01.373Z,99499.27
2019-05-26T03:50:35.668Z,99492.80
2019-05-26T03:53:09.322Z,99492.86
2019-05-26T03:55:43.253Z,99493.34
2019-05-26T03:58:16.672Z,99497.17
2019-05-26T04:00:50.494Z,99491.80
2019-05-26T04:03:24.376Z,99492.95
2019-05-26T04:05:58.213Z,99490.67
2019-05-26T04:08:31.812Z,99493.54
2019-05-26T04:11:05.917Z,99485.72
2019-05-26T04:13:39.971Z,99490.66
2019-05-26T04:16:13.902Z,99489.90
2019-05-26T04:18:47.860Z,99490.83
2019-05-26T04:21:21.651Z,99494.88
2019-05-26T04:23:55.408Z,99495.80
2019-05-26T04:26:29.485Z,99497.87
2019-05-26T04:29:03.439Z,99503.06
2019-05-26T04:31:37.110Z,99499.97
2019-05-26T04:34:11.481Z,99501.65
2019-05-26T04:36:45.582Z,99510.73
2019-05-26T04:39:19.604Z,99504.72
2019-05-26T04:41:53.391Z,99502.91
2019-05-26T04:44:27.279Z,99511.48
2019-05-26T04:47:01.122Z,99507.53
2019-05-26T04:49:37.566Z,99509.21
2019-05-26T04:52:10.894Z,99513.11
2019-05-26T04:54:44.675Z,99511.50
2019-05-26T04:57:18.227Z,99515.33
2019-05-26T04:59:52.186Z,99515.33
2019-05-26T05:02:25.810Z,99518.15
2019-05-26T05:04:59.891Z,99518.70
2019-05-26T05:07:33.192Z,99513.55
2019-05-26T05:10:06.990Z,99515.78
2019-05-26T05:12:41.710Z,99511.37
2019-05-26T05:15:16.566Z,99512.16
2019-05-26T05:17:50.569Z,99511.11
2019-05-26T05:20:24.445Z,99512.06
2019-05-26T05:22:58.291Z,99509.05
2019-05-26T05:25:32.016Z,99505.10
2019-05-26T05:28:06.386Z,99507.35
2019-05-26T05:30:40.369Z,99509.04
2019-05-26T05:33:14.237Z,99505.48
2019-05-26T05:35:47.952Z,99499.05
2019-05-26T05:38:21.774Z,99501.59
2019-05-26T05:40:59.936Z,99503.89
2019-05-26T05:43:33.682Z,99498.04
2019-05-26T05:46:07.389Z,99499.00
2019-05-26T05:48:41.141Z,99497.34
2019-05-26T05:51:16.224Z,99502.12
2019-05-26T05:53:50.478Z,99509.28
2019-05-26T05:56:23.728Z,99510.84
2019-05-26T05:58:58.074Z,99510.42
2019-05-26T06:01:31.702Z,99508.81
2019-05-26T06:04:05.989Z,99503.36
2019-05-26T06:06:40.210Z,99494.96
2019-05-26T06:09:14.403Z,99497.73
2019-05-26T06:11:47.281Z,99494.43
2019-05-26T06:14:21.028Z,99488.90
2019-05-26T06:16:54.672Z,99493.23
2019-05-26T06:19:27.975Z,99490.73
2019-05-26T06:22:01.365Z,99493.60
2019-05-26T06:24:35.407Z,99494.38
2019-05-26T06:27:09.012Z,99487.93
2019-05-26T06:29:57.777Z,99487.72
2019-05-26T06:32:18.429Z,99496.80
2019-05-26T06:34:52.142Z,99498.31
2019-05-26T06:37:26.057Z,99497.69
2019-05-26T06:39:59.322Z,99496.40
2019-05-26T06:42:32.985Z,99493.27
2019-05-26T06:45:06.177Z,99492.77
2019-05-26T06:47:40.375Z,99495.68
2019-05-26T06:50:13.311Z,99497.80
2019-05-26T06:52:46.996Z,99498.73
2019-05-26T06:55:20.662Z,99496.89
2019-05-26T06:57:55.983Z,99501.19
2019-05-26T07:00:29.807Z,99497.62
2019-05-26T07:03:03.487Z,99501.48
2019-05-26T07:05:37.219Z,99504.23
2019-05-26T07:08:11.434Z,99499.47
2019-05-26T07:10:45.203Z,99498.28
2019-05-26T07:13:19.227Z,99501.54
2019-05-26T07:15:53.741Z,99506.05
2019-05-26T07:18:27.996Z,99501.41
2019-05-26T07:21:02.107Z,99502.12
2019-05-26T07:23:36.324Z,99495.54
2019-05-26T07:26:09.900Z,99488.02
2019-05-26T07:28:44.038Z,99487.39
2019-05-26T07:31:18.270Z,99495.52
2019-05-26T07:33:52.107Z,99495.73
2019-05-26T07:36:25.669Z,99499.36
2019-05-26T07:38:59.246Z,99498.50
2019-05-26T07:41:33.045Z,99498.56
2019-05-26T07:44:06.851Z,99498.80
2019-05-26T07:46:40.995Z,99499.38
2019-05-26T07:49:14.649Z,99496.79
2019-05-26T07:51:48.478Z,99497.27
2019-05-26T07:54:25.822Z,99494.75
2019-05-26T07:56:58.498Z,99500.73
2019-05-26T08:03:33.169Z,99487.35
2019-05-26T08:06:07.057Z,99492.58
2019-05-26T08:08:40.331Z,99489.36
2019-05-26T08:11:14.332Z,99486.61
2019-05-26T08:13:46.708Z,99488.75
2019-05-26T08:16:19.924Z,99482.72
2019-05-26T08:18:52.877Z,99477.84
2019-05-26T08:21:26.624Z,99474.09
2019-05-26T08:23:58.634Z,99476.84
2019-05-26T08:26:31.078Z,99476.33
2019-05-26T08:29:03.489Z,99475.51
2019-05-26T08:31:35.550Z,99472.60
2019-05-26T08:34:08.520Z,99477.64
2019-05-26T08:36:40.994Z,99466.50
2019-05-26T08:39:13.817Z,99465.50
2019-05-26T08:41:47.278Z,99472.98
2019-05-26T08:44:20.272Z,99468.46
2019-05-26T08:46:54.241Z,99463.70
2019-05-26T08:49:26.649Z,99459.28
2019-05-26T08:51:59.046Z,99458.91
2019-05-26T08:54:31.476Z,99458.99
2019-05-26T08:57:04.558Z,99460.95
2019-05-26T08:59:37.412Z,99449.44
2019-05-26T09:02:09.930Z,99446.51
2019-05-26T09:04:43.129Z,99436.84
2019-05-26T09:07:16.134Z,99435.12
2019-05-26T09:09:48.463Z,99436.83
2019-05-26T09:12:21.116Z,99442.63
2019-05-26T09:14:53.428Z,99444.12
2019-05-26T09:17:25.462Z,99438.06
2019-05-26T09:19:58.098Z,99437.94
2019-05-26T09:22:30.485Z,99440.02
2019-05-26T09:25:03.734Z,99432.44
2019-05-26T09:27:36.084Z,99433.95
2019-05-26T09:30:08.781Z,99428.69
2019-05-26T09:32:41.556Z,99429.73
2019-05-26T09:35:14.881Z,99430.66
2019-05-26T09:37:48.346Z,99430.66
2019-05-26T09:40:21.503Z,99421.89
2019-05-26T09:42:55.425Z,99419.77
2019-05-26T09:45:27.364Z,99415.98
2019-05-26T09:47:59.383Z,99429.72
2019-05-26T09:50:31.837Z,99415.00
2019-05-26T09:53:04.584Z,99424.73
2019-05-26T09:55:37.926Z,99421.35
2019-05-26T09:58:10.735Z,99413.83
2019-05-26T10:00:45.051Z,99415.91
2019-05-26T10:03:17.835Z,99402.59
2019-05-26T10:05:50.792Z,99401.11
2019-05-26T10:08:24.178Z,99399.88
2019-05-26T10:10:56.630Z,99402.95
2019-05-26T10:13:32.041Z,99402.73
2019-05-26T10:16:04.521Z,99393.13
2019-05-26T10:18:36.431Z,99398.98
2019-05-26T10:21:10.196Z,99402.55
2019-05-26T10:23:42.672Z,99393.50
2019-05-26T10:26:15.137Z,99399.46
2019-05-26T10:28:48.453Z,99395.38
2019-05-26T10:31:22.614Z,99404.91
2019-05-26T10:33:55.389Z,99391.41
2019-05-26T10:36:28.304Z,99398.71
2019-05-26T10:39:02.358Z,99387.11
2019-05-26T10:41:36.331Z,99381.38
2019-05-26T10:44:09.233Z,99381.33
2019-05-26T10:46:42.279Z,99379.62
2019-05-26T10:49:15.490Z,99374.17
2019-05-26T10:51:49.102Z,99384.55
2019-05-26T10:54:22.815Z,99365.41
2019-05-26T10:56:56.578Z,99363.41
2019-05-26T10:59:31.234Z,99370.08
2019-05-26T11:02:04.176Z,99379.86
2019-05-26T11:04:37.807Z,99372.33
2019-05-26T11:07:11.755Z,99357.16
2019-05-26T11:09:46.334Z,99363.78
2019-05-26T11:12:19.377Z,99354.48
2019-05-26T11:14:52.478Z,99355.48
2019-05-26T11:17:26.166Z,99351.34
2019-05-26T11:20:00.111Z,99354.98
2019-05-26T11:22:32.741Z,99341.19
2019-05-26T11:25:06.225Z,99334.95
2019-05-26T11:27:40.043Z,99339.66
2019-05-26T11:30:13.999Z,99351.48
2019-05-26T11:32:48.336Z,99328.13
2019-05-26T11:35:22.600Z,99327.47
2019-05-26T11:37:56.304Z,99324.48
2019-05-26T11:40:29.839Z,99328.20
2019-05-26T11:43:15.723Z,99328.38
2019-05-26T11:45:38.745Z,99317.89
2019-05-26T11:48:12.042Z,99319.77
2019-05-26T11:50:45.843Z,99313.00
2019-05-26T11:53:19.915Z,99300.33
2019-05-26T11:55:53.224Z,99297.76
2019-05-26T11:58:26.424Z,99304.89
2019-05-26T12:01:00.534Z,99288.95
2019-05-26T12:03:34.274Z,99276.95
2019-05-26T12:06:08.351Z,99275.30
2019-05-26T12:08:42.058Z,99277.34
2019-05-26T12:11:16.184Z,99275.75
2019-05-26T12:13:49.378Z,99264.08
2019-05-26T12:16:23.075Z,99260.86
2019-05-26T12:18:57.288Z,99253.55
2019-05-26T12:21:31.412Z,99248.61
2019-05-26T12:24:05.279Z,99241.14
2019-05-26T12:26:38.106Z,99237.14
2019-05-26T12:29:12.303Z,99226.73
2019-05-26T12:31:46.008Z,99232.27
2019-05-26T12:34:20.137Z,99226.47
2019-05-26T12:36:53.720Z,99228.50
2019-05-26T12:39:27.432Z,99219.95
2019-05-26T12:42:01.437Z,99212.02
2019-05-26T12:44:48.548Z,99205.73
2019-05-26T12:47:10.087Z,99208.27
2019-05-26T12:49:44.193Z,99196.82
2019-05-26T12:52:18.104Z,99195.42
2019-05-26T12:54:52.122Z,99184.85
2019-05-26T12:57:26.123Z,99181.30
2019-05-26T12:59:59.378Z,99176.72
2019-05-26T13:02:33.328Z,99196.41
2019-05-26T13:05:06.932Z,99192.81
2019-05-26T13:07:39.796Z,99179.92
2019-05-26T13:10:14.131Z,99173.14
2019-05-26T13:12:48.281Z,99172.91
2019-05-26T13:15:22.277Z,99177.08
2019-05-26T13:17:55.562Z,99174.89
2019-05-26T13:20:30.025Z,99168.09
2019-05-26T13:23:03.777Z,99157.56
2019-05-26T13:25:38.028Z,99155.35
2019-05-26T13:28:11.820Z,99146.86
2019-05-26T13:30:45.509Z,99148.89
2019-05-26T13:33:19.538Z,99142.27
2019-05-26T13:35:52.823Z,99142.08
2019-05-26T13:38:26.237Z,99153.52
2019-05-26T13:40:59.681Z,99152.37
2019-05-26T13:43:32.559Z,99157.05
2019-05-26T13:46:04.572Z,99152.03
2019-05-26T13:48:36.554Z,99149.31
2019-05-26T13:51:08.869Z,99150.33
2019-05-26T13:53:41.851Z,99154.44
2019-05-26T13:56:14.661Z,99160.59
2019-05-26T13:58:48.551Z,99149.71
2019-05-26T14:01:21.482Z,99154.06
2019-05-26T14:03:54.606Z,99142.39
2019-05-26T14:06:26.993Z,99140.63
2019-05-26T14:09:02.299Z,99141.67
2019-05-26T14:11:34.372Z,99125.32
2019-05-26T14:14:07.012Z,99121.88
2019-05-26T14:16:39.945Z,99123.80
2019-05-26T14:19:13.876Z,99142.32
2019-05-26T14:21:46.358Z,99125.97
2019-05-26T14:24:18.914Z,99128.70
2019-05-26T14:26:52.364Z,99135.15
2019-05-26T14:29:25.622Z,99129.42
2019-05-26T14:31:58.005Z,99119.36
2019-05-26T14:34:31.882Z,99125.00
2019-05-26T14:37:05.233Z,99136.53
2019-05-26T14:39:38.542Z,99128.69
2019-05-26T14:42:10.512Z,99125.77
2019-05-26T14:44:43.927Z,99128.03
2019-05-26T14:47:16.343Z,99121.42
2019-05-26T14:49:49.637Z,99124.23
2019-05-26T14:52:23.452Z,99121.59
2019-05-26T14:54:56.878Z,99118.39
2019-05-26T14:57:31.171Z,99119.92
2019-05-26T15:00:06.253Z,99123.99
2019-05-26T15:02:40.652Z,99113.88
2019-05-26T15:05:16.089Z,99111.27
2019-05-26T15:07:50.312Z,99113.33
2019-05-26T15:10:24.466Z,99114.25
2019-05-26T15:12:57.819Z,99116.72
2019-05-26T15:15:34.758Z,99116.83
2019-05-26T15:18:05.840Z,99115.42
2019-05-26T15:20:39.808Z,99110.14
2019-05-26T15:23:13.317Z,99107.80
2019-05-26T15:25:46.898Z,99101.45
2019-05-26T15:28:20.306Z,99098.37
2019-05-26T15:30:54.334Z,99096.91
2019-05-26T15:33:27.555Z,99097.67
2019-05-26T15:36:01.668Z,99107.91
2019-05-26T15:38:43.015Z,99101.73
2019-05-26T15:41:10.823Z,99105.84
2019-05-26T15:43:44.082Z,99109.55
2019-05-26T15:46:25.279Z,99115.02
2019-05-26T15:48:53.863Z,99119.68
2019-05-26T15:51:27.549Z,99109.11
2019-05-26T15:54:01.673Z,99111.01
2019-05-26T15:56:35.656Z,99110.92
2019-05-26T15:59:09.895Z,99112.98
2019-05-26T16:01:45.375Z,99110.52
2019-05-26T16:04:19.536Z,99109.78
2019-05-26T16:06:53.276Z,99101.87
2019-05-26T16:09:26.622Z,99106.94
2019-05-26T16:11:59.936Z,99106.08
2019-05-26T16:14:34.168Z,99104.13
2019-05-26T16:17:07.480Z,99113.30
2019-05-26T16:19:41.131Z,99122.13
2019-05-26T16:22:15.408Z,99104.48
2019-05-26T16:24:49.498Z,99108.92
2019-05-26T16:27:24.020Z,99099.17
2019-05-26T16:29:57.644Z,99099.03
2019-05-26T16:32:31.711Z,99095.38
2019-05-26T16:35:05.433Z,99095.10
2019-05-26T16:37:39.571Z,99089.02
2019-05-26T16:40:13.894Z,99091.75
2019-05-26T16:42:47.622Z,99087.05
2019-05-26T16:45:21.549Z,99088.27
2019-05-26T16:47:55.490Z,99093.69
2019-05-26T16:50:29.001Z,99096.48
2019-05-26T16:53:03.186Z,99093.76
2019-05-26T16:55:38.735Z,99104.77
2019-05-26T16:58:11.405Z,99099.35
2019-05-26T17:00:44.730Z,99097.86
2019-05-26T17:03:18.438Z,99099.65
2019-05-26T17:06:06.981Z,99096.84
2019-05-26T17:08:28.090Z,99098.55
2019-05-26T17:11:02.961Z,99095.95
2019-05-26T17:13:36.645Z,99101.06
2019-05-26T17:16:11.899Z,99099.13
2019-05-26T17:18:46.053Z,99102.39
2019-05-26T17:21:19.858Z,99098.30
2019-05-26T17:23:54.139Z,99100.05
2019-05-26T17:26:28.055Z,99103.76
2019-05-26T17:29:00.898Z,99100.67
2019-05-26T17:31:33.555Z,99097.52
2019-05-26T17:34:07.241Z,99099.47
2019-05-26T17:36:40.875Z,99101.39
2019-05-26T17:39:14.087Z,99103.66
2019-05-26T17:41:48.274Z,99101.39
2019-05-26T17:44:22.304Z,99104.48
2019-05-26T17:46:56.532Z,99102.10
2019-05-26T17:49:30.332Z,99103.63
2019-05-26T17:52:04.229Z,99099.38
2019-05-26T17:54:36.611Z,99102.14
2019-05-26T17:57:09.500Z,99105.70
2019-05-26T17:59:41.944Z,99103.98
2019-05-26T18:02:15.333Z,99104.20
2019-05-26T18:04:48.365Z,99103.34
2019-05-26T18:07:21.577Z,99104.24
2019-05-26T18:09:54.052Z,99104.33
2019-05-26T18:12:27.094Z,99096.55
2019-05-26T18:14:59.095Z,99102.61
2019-05-26T18:17:45.990Z,99100.61
2019-05-26T18:20:06.540Z,99098.95
2019-05-26T18:22:39.523Z,99107.45
2019-05-26T18:25:11.609Z,99104.68
2019-05-26T18:27:44.454Z,99112.02
2019-05-26T18:30:17.755Z,99114.20
2019-05-26T18:32:51.214Z,99110.50
2019-05-26T18:35:24.090Z,99112.16
2019-05-26T18:37:56.771Z,99109.27
2019-05-26T18:40:29.720Z,99118.52
2019-05-26T18:43:03.404Z,99115.86
2019-05-26T18:45:36.806Z,99120.56
2019-05-26T18:48:09.689Z,99114.59
2019-05-26T18:50:42.680Z,99112.86
2019-05-26T18:53:15.579Z,99120.13
2019-05-26T18:55:48.108Z,99119.44
2019-05-26T18:58:21.456Z,99120.53
2019-05-26T19:00:53.975Z,99122.61
2019-05-26T19:03:27.298Z,99121.48
2019-05-26T19:06:00.133Z,99126.25
2019-05-26T19:08:33.781Z,99128.55
2019-05-26T19:11:07.620Z,99125.98
2019-05-26T19:13:40.587Z,99126.94
2019-05-26T19:16:13.595Z,99132.73
2019-05-26T19:18:46.425Z,99137.08
2019-05-26T19:21:19.347Z,99135.44
2019-05-26T19:23:51.839Z,99139.28
2019-05-26T19:26:24.814Z,99145.88
2019-05-26T19:28:57.259Z,99145.44
2019-05-26T19:31:30.400Z,99141.48
2019-05-26T19:34:03.322Z,99145.08
2019-05-26T19:36:37.096Z,99141.73
2019-05-26T19:39:11.204Z,99143.77
2019-05-26T19:41:44.121Z,99134.36
2019-05-26T19:44:16.915Z,99132.47
2019-05-26T19:46:52.849Z,99131.41
2019-05-26T19:49:25.780Z,99125.73
2019-05-26T19:51:58.316Z,99131.63
2019-05-26T19:54:30.285Z,99129.88
2019-05-26T19:57:02.202Z,99123.40
2019-05-26T19:59:34.625Z,99129.52
2019-05-26T20:02:17.802Z,99123.34
2019-05-26T20:04:40.862Z,99123.16
2019-05-26T20:07:13.871Z,99120.36
2019-05-26T20:09:46.434Z,99122.69
2019-05-26T20:12:19.751Z,99123.63
2019-05-26T20:14:53.396Z,99125.03
2019-05-26T20:17:26.818Z,99125.20
2019-05-26T20:19:59.425Z,99122.49
2019-05-26T20:22:32.393Z,99123.48
2019-05-26T20:25:04.365Z,99125.01
2019-05-26T20:27:37.285Z,99125.83
2019-05-26T20:30:20.603Z,99121.84
2019-05-26T20:32:52.322Z,99122.12
2019-05-26T20:35:25.562Z,99118.59
2019-05-26T20:37:58.966Z,99114.78
2019-05-26T20:40:32.914Z,99116.35
2019-05-26T20:43:06.304Z,99120.47
2019-05-26T20:45:59.694Z,99119.99
2019-05-26T20:48:34.618Z,99119.63
2019-05-26T20:51:07.568Z,99127.23
2019-05-26T20:53:40.781Z,99132.71
2019-05-26T20:56:14.193Z,99129.51
2019-05-26T20:58:49.807Z,99136.64
2019-05-26T21:01:23.422Z,99132.06
2019-05-26T21:03:55.806Z,99133.59
2019-05-26T21:06:29.574Z,99131.41
2019-05-26T21:09:02.971Z,99131.33
2019-05-26T21:11:36.577Z,99130.67
2019-05-26T21:14:10.313Z,99133.08
2019-05-26T21:16:44.209Z,99135.48
2019-05-26T21:19:18.019Z,99133.88
2019-05-26T21:21:51.849Z,99136.14
2019-05-26T21:24:25.517Z,99132.22
2019-05-26T21:26:59.650Z,99129.99
2019-05-26T21:29:33.405Z,99130.64
2019-05-26T21:32:07.137Z,99128.29
2019-05-26T21:34:40.922Z,99130.19
2019-05-26T21:37:15.198Z,99134.08
2019-05-26T21:39:48.369Z,99133.21
2019-05-26T21:42:22.310Z,99134.83
2019-05-26T21:44:56.081Z,99134.80
2019-05-26T21:47:30.198Z,99129.67
2019-05-26T21:50:05.783Z,99131.45
2019-05-26T21:52:39.836Z,99130.84
2019-05-26T21:55:13.980Z,99123.75
2019-05-26T21:57:47.229Z,99128.27
2019-05-26T22:00:22.492Z,99126.91
2019-05-26T22:02:55.348Z,99125.59
2019-05-26T22:05:29.736Z,99124.89
2019-05-26T22:08:03.438Z,99126.41
2019-05-26T22:10:36.696Z,99122.42
2019-05-26T22:13:09.820Z,99121.59
2019-05-26T22:15:43.092Z,99120.56
2019-05-26T22:18:16.782Z,99117.14
2019-05-26T22:20:50.598Z,99111.47
2019-05-26T22:23:24.613Z,99109.84
2019-05-26T22:25:58.852Z,99112.09
2019-05-26T22:28:32.732Z,99112.16
2019-05-26T22:31:06.879Z,99113.42
2019-05-26T22:33:40.109Z,99108.13
2019-05-26T22:36:14.236Z,99108.43
2019-05-26T22:38:48.346Z,99103.08
2019-05-26T22:41:22.214Z,99098.61
2019-05-26T22:43:56.288Z,99096.31
2019-05-26T22:46:29.900Z,99093.09
2019-05-26T22:49:04.012Z,99095.53
2019-05-26T22:51:37.605Z,99098.55
2019-05-26T22:54:11.618Z,99096.19
2019-05-26T22:56:45.383Z,99096.56
2019-05-26T22:59:19.171Z,99094.09
2019-05-26T23:01:52.894Z,99089.95
2019-05-26T23:04:27.147Z,99088.38
2019-05-26T23:07:00.859Z,99089.34
2019-05-26T23:09:35.051Z,99090.80
2019-05-26T23:12:08.219Z,99093.73
2019-05-26T23:14:41.960Z,99092.25
2019-05-26T23:17:16.085Z,99092.98
2019-05-26T23:19:50.335Z,99092.55
2019-05-26T23:22:24.215Z,99088.88
2019-05-26T23:24:57.400Z,99085.34
2019-05-26T23:27:31.620Z,99083.27
2019-05-26T23:30:04.564Z,99091.55
2019-05-26T23:32:38.827Z,99086.94
2019-05-26T23:35:11.940Z,99080.88
2019-05-26T23:37:45.999Z,99082.95
2019-05-26T23:40:19.320Z,99082.97
2019-05-26T23:42:53.426Z,99083.23
2019-05-26T23:45:26.642Z,99086.44
2019-05-26T23:48:00.612Z,99087.30
2019-05-26T23:50:34.746Z,99090.17
2019-05-26T23:53:08.529Z,99091.69
2019-05-26T23:55:42.775Z,99091.82
2019-05-26T23:58:16.157Z,99084.21
